createdAt,value
2024-02-02T00:01:49.949Z,5.00
2024-02-02T00:04:18.068Z,5.00
2024-02-02T00:06:44.990Z,5.00
2024-02-02T00:09:14.095Z,4.90
2024-02-02T00:11:41.008Z,5.00
2024-02-02T00:14:08.933Z,4.90
2024-02-02T00:16:36.980Z,4.90
2024-02-02T00:19:05.384Z,4.90
2024-02-02T00:21:33.844Z,4.90
2024-02-02T00:24:00.957Z,4.90
2024-02-02T00:26:30.378Z,4.90
2024-02-02T00:28:59.276Z,5.00
2024-02-02T00:31:26.068Z,5.00
2024-02-02T00:33:53.472Z,5.10
2024-02-02T00:36:20.357Z,5.10
2024-02-02T00:38:49.576Z,5.00
2024-02-02T00:41:17.608Z,5.00
2024-02-02T00:43:44.349Z,4.90
2024-02-02T00:46:12.445Z,5.00
2024-02-02T00:48:40.916Z,4.90
2024-02-02T00:51:09.438Z,4.90
2024-02-02T00:53:38.852Z,5.00
2024-02-02T00:56:08.518Z,4.90
2024-02-02T00:58:38.966Z,5.00
2024-02-02T01:01:09.492Z,5.00
2024-02-02T01:03:38.993Z,4.90
2024-02-02T01:06:09.056Z,4.70
2024-02-02T01:08:37.001Z,4.80
2024-02-02T01:11:05.008Z,4.70
2024-02-02T01:13:33.135Z,4.70
2024-02-02T01:16:00.158Z,4.70
2024-02-02T01:18:29.247Z,4.70
2024-02-02T01:20:58.676Z,4.70
2024-02-02T01:23:28.173Z,4.80
2024-02-02T01:25:57.589Z,4.80
2024-02-02T01:28:26.759Z,4.80
2024-02-02T01:30:53.569Z,4.70
2024-02-02T01:33:20.535Z,4.70
2024-02-02T01:35:47.539Z,4.70
2024-02-02T01:38:15.785Z,4.80
2024-02-02T01:40:43.701Z,4.70
2024-02-02T01:43:12.064Z,4.70
2024-02-02T01:45:38.951Z,4.60
2024-02-02T01:48:08.871Z,4.60
2024-02-02T01:50:36.874Z,4.60
2024-02-02T01:53:05.204Z,4.50
2024-02-02T01:55:32.958Z,4.60
2024-02-02T01:58:02.886Z,4.70
2024-02-02T02:00:29.939Z,4.80
2024-02-02T02:02:56.915Z,4.80
2024-02-02T02:05:23.786Z,4.70
2024-02-02T02:07:50.660Z,4.80
2024-02-02T02:10:19.773Z,4.80
2024-02-02T02:12:48.241Z,4.70
2024-02-02T02:15:19.374Z,4.70
2024-02-02T02:17:48.414Z,4.70
2024-02-02T02:20:23.008Z,4.80
2024-02-02T02:22:51.499Z,4.80
2024-02-02T02:25:19.237Z,4.80
2024-02-02T02:27:50.318Z,4.80
2024-02-02T02:30:18.561Z,4.70
2024-02-02T02:32:46.822Z,4.80
2024-02-02T02:35:14.931Z,4.90
2024-02-02T02:37:45.365Z,4.90
2024-02-02T02:40:12.727Z,4.80
2024-02-02T02:42:40.957Z,4.90
2024-02-02T02:45:07.945Z,4.90
2024-02-02T02:47:39.194Z,5.00
2024-02-02T02:50:10.187Z,4.90
2024-02-02T02:52:40.739Z,4.90
2024-02-02T02:55:09.501Z,5.00
2024-02-02T02:57:36.434Z,4.90
2024-02-02T03:00:05.080Z,5.00
2024-02-02T03:02:33.248Z,4.90
2024-02-02T03:05:00.653Z,4.90
2024-02-02T03:07:27.677Z,4.70
2024-02-02T03:09:56.586Z,4.70
2024-02-02T03:12:24.542Z,4.80
2024-02-02T03:14:51.595Z,4.70
2024-02-02T03:17:18.467Z,4.70
2024-02-02T03:19:45.357Z,4.80
2024-02-02T03:22:13.348Z,4.70
2024-02-02T03:24:40.305Z,4.80
2024-02-02T03:27:07.176Z,4.80
2024-02-02T03:29:35.215Z,4.60
2024-02-02T03:32:02.254Z,4.60
2024-02-02T03:34:30.226Z,4.70
2024-02-02T03:36:57.539Z,4.70
2024-02-02T03:39:25.771Z,4.70
2024-02-02T03:41:52.928Z,4.70
2024-02-02T03:44:21.406Z,4.70
2024-02-02T03:46:48.251Z,4.80
2024-02-02T03:49:15.171Z,4.80
2024-02-02T03:51:42.957Z,4.70
2024-02-02T03:54:11.342Z,4.70
2024-02-02T03:56:40.299Z,4.70
2024-02-02T03:59:10.550Z,4.70
2024-02-02T04:01:37.328Z,4.80
2024-02-02T04:04:04.447Z,4.70
2024-02-02T04:06:32.812Z,4.70
2024-02-02T04:08:59.754Z,4.90
2024-02-02T04:11:26.684Z,4.80
2024-02-02T04:13:55.584Z,4.70
2024-02-02T04:16:22.487Z,4.70
2024-02-02T04:18:50.639Z,4.80
2024-02-02T04:21:17.639Z,4.70
2024-02-02T04:23:45.661Z,4.70
2024-02-02T04:26:13.774Z,4.70
2024-02-02T04:28:41.645Z,4.60
2024-02-02T04:31:08.700Z,4.80
2024-02-02T04:33:36.614Z,4.70
2024-02-02T04:36:03.690Z,4.80
2024-02-02T04:38:32.051Z,4.70
2024-02-02T04:40:59.842Z,4.70
2024-02-02T04:43:26.647Z,4.60
2024-02-02T04:45:53.433Z,4.60
2024-02-02T04:48:21.442Z,4.60
2024-02-02T04:50:50.390Z,4.60
2024-02-02T04:53:20.865Z,4.50
2024-02-02T04:55:49.077Z,4.60
2024-02-02T04:58:15.867Z,4.60
2024-02-02T05:00:43.718Z,4.60
2024-02-02T05:03:11.728Z,4.60
2024-02-02T05:05:40.018Z,4.70
2024-02-02T05:08:08.311Z,4.70
2024-02-02T05:10:38.813Z,4.70
2024-02-02T05:13:06.820Z,4.70
2024-02-02T05:15:33.801Z,4.70
2024-02-02T05:18:01.180Z,4.70
2024-02-02T05:20:29.218Z,4.70
2024-02-02T05:22:58.736Z,4.80
2024-02-02T05:25:28.238Z,4.90
2024-02-02T05:27:55.489Z,4.90
2024-02-02T05:30:22.703Z,4.80
2024-02-02T05:32:49.558Z,4.90
2024-02-02T05:35:18.572Z,4.80
2024-02-02T05:37:45.499Z,4.80
2024-02-02T05:40:13.758Z,4.80
2024-02-02T05:42:40.658Z,4.70
2024-02-02T05:45:09.171Z,4.80
2024-02-02T05:47:35.986Z,4.80
2024-02-02T05:50:04.295Z,4.70
2024-02-02T05:52:32.350Z,4.80
2024-02-02T05:55:00.515Z,4.80
2024-02-02T05:57:27.715Z,4.80
2024-02-02T05:59:55.400Z,4.90
2024-02-02T06:02:22.217Z,4.90
2024-02-02T06:04:50.559Z,4.80
2024-02-02T06:07:19.052Z,4.90
2024-02-02T06:09:47.232Z,4.90
2024-02-02T06:12:14.550Z,4.80
2024-02-02T06:14:42.727Z,4.80
2024-02-02T06:17:09.647Z,4.80
2024-02-02T06:19:38.194Z,4.80
2024-02-02T06:22:05.074Z,4.80
2024-02-02T06:24:33.288Z,4.80
2024-02-02T06:27:02.288Z,4.80
2024-02-02T06:29:31.141Z,4.80
2024-02-02T06:31:58.133Z,4.80
2024-02-02T06:34:26.266Z,4.90
2024-02-02T06:36:53.132Z,4.90
2024-02-02T06:39:19.930Z,4.90
2024-02-02T06:41:49.207Z,4.90
2024-02-02T06:44:17.853Z,4.90
2024-02-02T06:46:48.249Z,4.80
2024-02-02T06:49:20.571Z,4.80
2024-02-02T06:51:48.632Z,4.90
2024-02-02T06:54:15.769Z,4.80
2024-02-02T06:56:46.031Z,4.80
2024-02-02T06:59:14.766Z,4.80
2024-02-02T07:01:42.169Z,5.00
2024-02-02T07:04:13.971Z,5.10
2024-02-02T07:06:41.503Z,5.20
2024-02-02T07:09:30.981Z,5.30
2024-02-02T07:12:08.408Z,5.30
2024-02-02T07:14:52.433Z,5.30
2024-02-02T07:17:43.292Z,5.20
2024-02-02T07:20:31.659Z,5.20
2024-02-02T07:23:01.255Z,5.20
2024-02-02T07:25:29.455Z,5.20
2024-02-02T07:28:04.055Z,5.20
2024-02-02T07:30:49.469Z,5.30
2024-02-02T07:33:24.417Z,5.50
2024-02-02T07:35:51.930Z,5.30
2024-02-02T07:38:40.116Z,5.20
2024-02-02T07:41:12.867Z,5.20
2024-02-02T07:43:40.972Z,5.40
2024-02-02T07:46:11.391Z,5.40
2024-02-02T07:48:40.468Z,5.40
2024-02-02T07:51:09.221Z,5.40
2024-02-02T07:53:36.728Z,5.30
2024-02-02T07:56:03.737Z,5.40
2024-02-02T07:58:31.057Z,5.40
2024-02-02T08:00:59.426Z,5.30
2024-02-02T08:03:27.017Z,5.40
2024-02-02T08:05:59.187Z,5.40
2024-02-02T08:08:28.188Z,5.40
2024-02-02T08:10:55.410Z,5.40
2024-02-02T08:13:22.255Z,5.50
2024-02-02T08:15:49.253Z,5.50
2024-02-02T08:18:17.344Z,5.60
2024-02-02T08:20:44.238Z,5.50
2024-02-02T08:23:12.313Z,5.50
2024-02-02T08:25:40.152Z,5.50
2024-02-02T08:28:07.624Z,5.50
2024-02-02T08:30:35.854Z,5.40
2024-02-02T08:33:02.838Z,5.50
2024-02-02T08:35:29.856Z,5.70
2024-02-02T08:37:57.295Z,5.60
2024-02-02T08:40:38.891Z,5.50
2024-02-02T08:43:22.890Z,5.50
2024-02-02T08:46:23.476Z,5.60
2024-02-02T08:48:54.612Z,5.60
2024-02-02T08:51:25.193Z,5.70
2024-02-02T08:54:19.426Z,5.80
2024-02-02T08:57:10.626Z,5.90
2024-02-02T08:59:38.647Z,6.00
2024-02-02T09:02:10.094Z,5.90
2024-02-02T09:05:20.094Z,5.90
2024-02-02T09:08:15.871Z,6.00
2024-02-02T09:10:42.659Z,6.00
2024-02-02T09:13:20.362Z,6.20
2024-02-02T09:15:48.335Z,6.10
2024-02-02T09:18:39.017Z,6.10
2024-02-02T09:21:08.620Z,6.10
2024-02-02T09:23:37.666Z,6.00
2024-02-02T09:26:23.025Z,6.00
2024-02-02T09:28:52.156Z,6.00
2024-02-02T09:31:24.021Z,5.90
2024-02-02T09:33:54.115Z,6.00
2024-02-02T09:36:27.297Z,6.00
2024-02-02T09:39:30.516Z,5.90
2024-02-02T09:42:41.026Z,5.80
2024-02-02T09:45:29.156Z,5.70
2024-02-02T09:48:30.834Z,5.70
2024-02-02T09:51:33.908Z,5.60
2024-02-02T09:54:45.588Z,5.60
2024-02-02T09:57:36.608Z,5.80
2024-02-02T10:00:27.902Z,5.60
2024-02-02T10:03:36.998Z,5.60
2024-02-02T10:06:45.842Z,5.60
2024-02-02T10:09:43.503Z,5.70
2024-02-02T10:12:49.340Z,5.70
2024-02-02T10:15:49.811Z,5.70
2024-02-02T10:18:35.542Z,5.70
2024-02-02T10:21:25.762Z,5.80
2024-02-02T10:24:23.243Z,5.90
2024-02-02T10:27:20.773Z,5.90
2024-02-02T10:30:04.279Z,5.90
2024-02-02T10:33:05.817Z,6.00
2024-02-02T10:36:10.215Z,6.30
2024-02-02T10:39:14.700Z,6.30
2024-02-02T10:42:21.317Z,6.30
2024-02-02T10:45:16.280Z,6.40
2024-02-02T10:48:21.285Z,6.50
2024-02-02T10:51:19.170Z,6.60
2024-02-02T10:53:49.074Z,6.60
2024-02-02T10:56:49.077Z,6.70
2024-02-02T10:59:42.362Z,6.80
2024-02-02T11:02:58.593Z,6.80
2024-02-02T11:05:42.357Z,6.90
2024-02-02T11:08:20.909Z,6.90
2024-02-02T11:11:28.548Z,6.90
2024-02-02T11:14:33.037Z,6.90
2024-02-02T11:18:00.565Z,6.90
2024-02-02T11:26:47.537Z,7.10
2024-02-02T11:32:46.958Z,7.10
2024-02-02T11:47:07.482Z,7.00
2024-02-02T11:49:40.275Z,7.10
2024-02-02T11:52:33.560Z,7.20
2024-02-02T11:55:12.649Z,7.10
2024-02-02T11:57:46.703Z,7.20
2024-02-02T12:00:43.208Z,7.40
2024-02-02T12:03:46.881Z,7.60
2024-02-02T12:06:21.077Z,7.40
2024-02-02T12:09:09.238Z,7.50
2024-02-02T12:11:44.239Z,7.70
2024-02-02T12:14:52.151Z,7.60
2024-02-02T12:17:23.880Z,7.30
2024-02-02T12:19:52.434Z,7.30
2024-02-02T12:22:20.118Z,7.20
2024-02-02T12:24:53.423Z,7.20
2024-02-02T12:27:26.081Z,7.10
2024-02-02T12:29:57.094Z,7.10
2024-02-02T12:32:27.172Z,7.00
2024-02-02T12:34:59.300Z,7.10
2024-02-02T12:37:30.034Z,7.00
2024-02-02T12:39:58.031Z,7.00
2024-02-02T12:42:27.347Z,7.10
2024-02-02T12:44:58.380Z,7.00
2024-02-02T12:47:25.768Z,6.90
2024-02-02T12:49:55.792Z,6.70
2024-02-02T12:52:22.749Z,6.70
2024-02-02T12:54:50.993Z,6.60
2024-02-02T12:57:18.702Z,6.60
2024-02-02T12:59:45.514Z,6.70
2024-02-02T13:02:13.760Z,6.70
2024-02-02T13:04:42.134Z,6.80
2024-02-02T13:07:09.741Z,6.90
2024-02-02T13:09:37.927Z,6.90
2024-02-02T13:12:05.144Z,6.90
2024-02-02T13:14:38.102Z,6.90
2024-02-02T13:17:12.154Z,6.80
2024-02-02T13:19:42.218Z,6.70
2024-02-02T13:22:35.966Z,6.80
2024-02-02T13:25:04.697Z,6.90
2024-02-02T13:27:34.259Z,6.80
2024-02-02T13:30:01.709Z,6.80
2024-02-02T13:32:39.677Z,6.70
2024-02-02T13:35:10.556Z,6.70
2024-02-02T13:37:41.210Z,6.60
2024-02-02T13:40:15.824Z,6.60
2024-02-02T13:42:43.045Z,6.70
2024-02-02T13:45:21.662Z,6.90
2024-02-02T13:47:56.057Z,6.90
2024-02-02T13:50:25.885Z,6.80
2024-02-02T13:53:02.971Z,6.70
2024-02-02T13:55:31.835Z,6.80
2024-02-02T13:58:00.074Z,6.80
2024-02-02T14:00:33.975Z,6.80
2024-02-02T14:03:11.020Z,6.90
2024-02-02T14:05:40.097Z,6.80
2024-02-02T14:08:09.823Z,6.90
2024-02-02T14:10:48.673Z,7.00
2024-02-02T14:13:26.074Z,7.10
2024-02-02T14:15:55.603Z,7.10
2024-02-02T14:18:24.092Z,7.10
2024-02-02T14:20:53.277Z,7.10
2024-02-02T14:23:28.916Z,7.00
2024-02-02T14:26:06.909Z,7.10
2024-02-02T14:28:39.123Z,7.00
2024-02-02T14:31:09.691Z,7.10
2024-02-02T14:33:41.717Z,7.10
2024-02-02T14:36:20.223Z,7.10
2024-02-02T14:38:52.552Z,7.10
2024-02-02T14:41:22.460Z,7.10
2024-02-02T14:43:53.557Z,7.10
2024-02-02T14:46:30.864Z,7.10
2024-02-02T14:49:10.288Z,7.10
2024-02-02T14:51:46.113Z,7.20
2024-02-02T14:54:19.773Z,7.10
2024-02-02T14:56:50.470Z,7.00
2024-02-02T14:59:21.352Z,7.10
2024-02-02T15:01:48.308Z,7.10
2024-02-02T15:04:16.535Z,7.00
2024-02-02T15:06:45.418Z,7.20
2024-02-02T15:09:14.499Z,7.10
2024-02-02T15:11:45.695Z,7.10
2024-02-02T15:14:14.025Z,7.20
2024-02-02T15:16:40.881Z,7.20
2024-02-02T15:19:08.909Z,7.10
2024-02-02T15:21:35.870Z,7.10
2024-02-02T15:24:04.176Z,7.10
2024-02-02T15:26:39.063Z,7.10
2024-02-02T15:29:07.075Z,7.10
2024-02-02T15:31:34.666Z,7.10
2024-02-02T15:34:07.381Z,7.00
2024-02-02T15:36:40.135Z,7.00
2024-02-02T15:39:19.393Z,7.10
2024-02-02T15:41:57.889Z,7.20
2024-02-02T15:44:26.757Z,7.10
2024-02-02T15:46:53.513Z,7.20
2024-02-02T15:49:21.578Z,7.20
2024-02-02T15:51:51.538Z,7.20
2024-02-02T15:54:20.104Z,7.20
2024-02-02T15:56:48.471Z,7.30
2024-02-02T15:59:16.723Z,7.30
2024-02-02T16:01:49.992Z,7.30
2024-02-02T16:04:19.032Z,7.30
2024-02-02T16:06:48.402Z,7.30
2024-02-02T16:09:20.370Z,7.30
2024-02-02T16:11:50.602Z,7.30
2024-02-02T16:14:19.931Z,7.40
2024-02-02T16:16:50.023Z,7.30
2024-02-02T16:19:22.509Z,7.10
2024-02-02T16:21:50.936Z,7.20
2024-02-02T16:24:19.174Z,7.30
2024-02-02T16:26:46.278Z,7.40
2024-02-02T16:29:14.613Z,7.30
2024-02-02T16:31:45.562Z,7.30
2024-02-02T16:34:13.053Z,7.30
2024-02-02T16:36:41.159Z,7.30
2024-02-02T16:39:13.671Z,7.40
2024-02-02T16:41:42.763Z,7.30
2024-02-02T16:44:11.367Z,7.30
2024-02-02T16:46:43.812Z,7.20
2024-02-02T16:49:13.006Z,7.20
2024-02-02T16:51:41.939Z,7.30
2024-02-02T16:54:09.554Z,7.40
2024-02-02T16:56:38.084Z,7.30
2024-02-02T16:59:06.324Z,7.20
2024-02-02T17:01:35.581Z,7.20
2024-02-02T17:04:03.990Z,7.20
2024-02-02T17:06:33.117Z,7.30
2024-02-02T17:09:01.869Z,7.30
2024-02-02T17:11:28.651Z,7.20
2024-02-02T17:13:55.642Z,7.30
2024-02-02T17:16:22.447Z,7.40
2024-02-02T17:18:50.974Z,7.30
2024-02-02T17:21:18.450Z,7.30
2024-02-02T17:23:46.698Z,7.20
2024-02-02T17:26:21.191Z,7.20
2024-02-02T17:28:51.553Z,7.10
2024-02-02T17:31:21.120Z,7.10
2024-02-02T17:33:48.022Z,7.20
2024-02-02T17:36:17.098Z,7.20
2024-02-02T17:38:44.449Z,7.20
2024-02-02T17:41:13.901Z,7.20
2024-02-02T17:43:41.667Z,7.20
2024-02-02T17:46:17.006Z,7.00
2024-02-02T17:48:45.095Z,7.00
2024-02-02T17:51:14.141Z,6.90
2024-02-02T17:53:44.617Z,7.00
2024-02-02T17:56:13.490Z,7.00
2024-02-02T17:58:40.625Z,7.00
2024-02-02T18:01:08.692Z,7.00
2024-02-02T18:03:39.301Z,7.00
2024-02-02T18:06:07.788Z,7.20
2024-02-02T18:08:34.698Z,7.20
2024-02-02T18:11:01.610Z,7.10
2024-02-02T18:13:29.641Z,7.10
2024-02-02T18:15:56.519Z,7.10
2024-02-02T18:18:24.782Z,7.10
2024-02-02T18:20:53.757Z,7.30
2024-02-02T18:23:21.919Z,7.20
2024-02-02T18:25:50.132Z,7.20
2024-02-02T18:28:19.499Z,7.20
2024-02-02T18:30:47.609Z,7.30
2024-02-02T18:33:14.525Z,7.30
2024-02-02T18:35:42.925Z,7.20
2024-02-02T18:38:09.860Z,7.30
2024-02-02T18:40:38.011Z,7.30
2024-02-02T18:43:04.994Z,7.30
2024-02-02T18:45:34.172Z,7.40
2024-02-02T18:48:07.797Z,7.50
2024-02-02T18:50:38.261Z,7.50
2024-02-02T18:53:05.257Z,7.50
2024-02-02T18:55:32.416Z,7.50
2024-02-02T18:58:00.457Z,7.50
2024-02-02T19:00:27.587Z,7.60
2024-02-02T19:02:58.809Z,7.50
2024-02-02T19:05:25.618Z,7.50
2024-02-02T19:07:52.413Z,7.50
2024-02-02T19:10:20.295Z,7.50
2024-02-02T19:12:47.398Z,7.60
2024-02-02T19:15:18.786Z,7.60
2024-02-02T19:17:46.921Z,7.60
2024-02-02T19:20:13.715Z,7.50
2024-02-02T19:22:40.527Z,7.50
2024-02-02T19:25:09.090Z,7.50
2024-02-02T19:27:36.462Z,7.50
2024-02-02T19:30:09.237Z,7.50
2024-02-02T19:32:37.347Z,7.60
2024-02-02T19:35:04.386Z,7.50
2024-02-02T19:37:31.403Z,7.50
2024-02-02T19:39:59.373Z,7.40
2024-02-02T19:42:26.183Z,7.50
2024-02-02T19:44:55.262Z,7.50
2024-02-02T19:47:24.617Z,7.50
2024-02-02T19:50:02.634Z,7.60
2024-02-02T19:52:30.806Z,7.60
2024-02-02T19:55:04.085Z,7.60
2024-02-02T19:57:32.834Z,7.60
2024-02-02T20:00:04.197Z,7.60
2024-02-02T20:02:32.442Z,7.50
2024-02-02T20:05:01.701Z,7.50
2024-02-02T20:07:32.381Z,7.50
2024-02-02T20:10:02.148Z,7.40
2024-02-02T20:12:28.994Z,7.50
2024-02-02T20:14:55.783Z,7.50
2024-02-02T20:17:22.617Z,7.60
2024-02-02T20:19:49.602Z,7.50
2024-02-02T20:22:16.497Z,7.60
2024-02-02T20:24:44.601Z,7.60
2024-02-02T20:27:12.832Z,7.50
2024-02-02T20:29:40.999Z,7.50
2024-02-02T20:32:08.226Z,7.50
2024-02-02T20:34:36.425Z,7.60
2024-02-02T20:37:03.356Z,7.50
2024-02-02T20:39:30.245Z,7.70
2024-02-02T20:41:57.441Z,7.60
2024-02-02T20:44:31.008Z,7.60
2024-02-02T20:47:00.646Z,7.60
2024-02-02T20:49:29.044Z,7.50
2024-02-02T20:51:56.002Z,7.60
2024-02-02T20:54:22.940Z,7.60
2024-02-02T20:56:50.860Z,7.60
2024-02-02T20:59:18.361Z,7.60
2024-02-02T21:01:45.208Z,7.60
2024-02-02T21:04:12.213Z,7.60
2024-02-02T21:06:46.138Z,7.60
2024-02-02T21:09:14.415Z,7.50
2024-02-02T21:11:42.415Z,7.50
2024-02-02T21:14:09.227Z,7.50
2024-02-02T21:16:40.175Z,7.50
2024-02-02T21:19:08.161Z,7.60
2024-02-02T21:21:35.513Z,7.60
2024-02-02T21:24:04.067Z,7.60
2024-02-02T21:26:32.084Z,7.50
2024-02-02T21:29:00.331Z,7.60
2024-02-02T21:31:29.449Z,7.50
2024-02-02T21:33:56.640Z,7.60
2024-02-02T21:36:23.543Z,7.60
2024-02-02T21:38:51.888Z,7.70
2024-02-02T21:41:24.432Z,7.70
2024-02-02T21:43:51.610Z,7.60
2024-02-02T21:46:22.406Z,7.80
2024-02-02T21:48:50.582Z,7.70
2024-02-02T21:51:19.648Z,7.80
2024-02-02T21:53:46.604Z,7.70
2024-02-02T21:56:13.423Z,7.70
2024-02-02T21:58:44.253Z,7.70
2024-02-02T22:01:11.440Z,7.60
2024-02-02T22:03:39.789Z,7.70
2024-02-02T22:06:26.665Z,7.70
2024-02-02T22:08:55.237Z,7.50
2024-02-02T22:11:22.057Z,7.50
2024-02-02T22:13:52.506Z,7.50
2024-02-02T22:16:21.988Z,7.50
2024-02-02T22:18:52.923Z,7.40
2024-02-02T22:21:24.600Z,7.40
2024-02-02T22:23:52.462Z,7.40
2024-02-02T22:26:22.063Z,7.40
2024-02-02T22:28:50.125Z,7.50
2024-02-02T22:31:27.307Z,7.50
2024-02-02T22:33:59.487Z,7.40
2024-02-02T22:36:26.627Z,7.30
2024-02-02T22:38:57.634Z,7.30
2024-02-02T22:41:33.483Z,7.50
2024-02-02T22:44:03.195Z,7.50
2024-02-02T22:46:34.641Z,7.50
2024-02-02T22:49:05.875Z,7.50
2024-02-02T22:51:35.665Z,7.50
2024-02-02T22:54:15.456Z,7.50
2024-02-02T22:56:43.952Z,7.60
2024-02-02T22:59:13.028Z,7.60
2024-02-02T23:01:44.251Z,7.70
2024-02-02T23:04:11.203Z,7.60
2024-02-02T23:06:39.271Z,7.60
2024-02-02T23:09:06.238Z,7.60
2024-02-02T23:11:34.459Z,7.70
2024-02-02T23:14:02.451Z,7.70
2024-02-02T23:16:29.230Z,7.80
2024-02-02T23:18:56.139Z,7.80
2024-02-02T23:21:23.048Z,7.80
2024-02-02T23:23:49.897Z,7.80
2024-02-02T23:26:19.302Z,7.80
2024-02-02T23:28:46.035Z,7.90
2024-02-02T23:31:15.262Z,7.90
2024-02-02T23:33:43.837Z,7.90
2024-02-02T23:36:10.774Z,7.90
2024-02-02T23:38:38.864Z,7.90
2024-02-02T23:41:05.618Z,7.80
2024-02-02T23:43:32.375Z,7.80
2024-02-02T23:45:59.202Z,7.70
2024-02-02T23:48:26.480Z,7.80
2024-02-02T23:50:53.345Z,7.80
2024-02-02T23:53:32.156Z,7.90
2024-02-02T23:55:59.350Z,8.00
2024-02-02T23:58:26.123Z,7.80
